createdAt,value
2023-02-15T00:02:07.468Z,45.78
2023-02-15T00:04:51.182Z,34.78
2023-02-15T00:07:21.688Z,34.80
2023-02-15T00:09:50.144Z,36.35
2023-02-15T00:12:18.941Z,36.88
2023-02-15T00:14:47.161Z,36.55
2023-02-15T00:17:15.227Z,31.80
2023-02-15T00:19:43.343Z,33.35
2023-02-15T00:22:11.629Z,43.67
2023-02-15T00:24:41.082Z,37.65
2023-02-15T00:27:10.115Z,41.47
2023-02-15T00:29:38.269Z,29.30
2023-02-15T00:32:07.080Z,30.02
2023-02-15T00:34:35.272Z,35.33
2023-02-15T00:37:03.475Z,28.55
2023-02-15T00:39:31.537Z,31.45
2023-02-15T00:42:00.965Z,33.80
2023-02-15T00:44:28.993Z,31.40
2023-02-15T00:46:57.079Z,34.65
2023-02-15T00:49:25.148Z,31.88
2023-02-15T00:51:53.201Z,38.28
2023-02-15T00:54:21.360Z,34.92
2023-02-15T00:56:49.413Z,32.33
2023-02-15T00:59:18.873Z,31.85
2023-02-15T01:01:46.950Z,34.67
2023-02-15T01:04:15.264Z,38.00
2023-02-15T01:06:43.591Z,34.95
2023-02-15T01:09:11.650Z,36.40
2023-02-15T01:11:39.718Z,35.05
2023-02-15T01:14:07.783Z,30.38
2023-02-15T01:16:37.204Z,33.80
2023-02-15T01:19:05.263Z,33.08
2023-02-15T01:21:35.295Z,30.05
2023-02-15T01:24:03.548Z,30.65
2023-02-15T01:26:31.717Z,32.95
2023-02-15T01:28:59.827Z,33.00
2023-02-15T01:31:28.160Z,33.97
2023-02-15T01:33:57.681Z,30.75
2023-02-15T01:36:25.751Z,34.80
2023-02-15T01:38:53.849Z,36.83
2023-02-15T01:41:23.808Z,30.60
2023-02-15T01:43:53.767Z,30.45
2023-02-15T01:46:26.123Z,28.48
2023-02-15T01:49:00.392Z,34.53
2023-02-15T01:51:31.553Z,31.15
2023-02-15T01:54:03.670Z,30.73
2023-02-15T01:56:35.541Z,30.65
2023-02-15T01:59:08.901Z,47.03
2023-02-15T02:01:37.271Z,39.33
2023-02-15T02:04:15.493Z,22.77
2023-02-15T02:06:44.135Z,38.07
2023-02-15T02:09:13.694Z,34.15
2023-02-15T02:11:43.389Z,42.38
2023-02-15T02:14:11.920Z,28.83
2023-02-15T02:16:53.325Z,34.03
2023-02-15T02:19:53.183Z,33.60
2023-02-15T02:23:06.291Z,35.95
2023-02-15T02:26:05.183Z,46.25
2023-02-15T02:29:05.727Z,35.58
2023-02-15T02:31:55.258Z,37.00
2023-02-15T02:34:31.392Z,30.92
2023-02-15T02:37:10.366Z,31.75
2023-02-15T02:39:47.478Z,32.42
2023-02-15T02:42:21.502Z,30.52
2023-02-15T02:44:54.956Z,43.83
2023-02-15T02:47:28.714Z,33.05
2023-02-15T02:50:03.361Z,32.95
2023-02-15T02:52:40.897Z,31.92
2023-02-15T02:55:13.625Z,25.05
2023-02-15T02:57:48.588Z,33.00
2023-02-15T03:00:19.524Z,29.80
2023-02-15T03:02:49.892Z,40.67
2023-02-15T03:05:23.311Z,29.98
2023-02-15T03:07:54.031Z,39.10
2023-02-15T03:10:25.101Z,32.72
2023-02-15T03:12:53.966Z,34.47
2023-02-15T03:15:26.627Z,27.05
2023-02-15T03:17:58.636Z,30.23
2023-02-15T03:20:31.411Z,32.40
2023-02-15T03:23:03.570Z,28.45
2023-02-15T03:25:36.202Z,23.15
2023-02-15T03:28:07.755Z,28.40
2023-02-15T03:30:37.797Z,21.90
2023-02-15T03:33:08.198Z,27.33
2023-02-15T03:35:45.983Z,23.63
2023-02-15T03:38:19.432Z,31.17
2023-02-15T03:41:06.835Z,27.88
2023-02-15T03:43:42.761Z,24.85
2023-02-15T03:46:16.026Z,29.33
2023-02-15T03:48:47.780Z,21.05
2023-02-15T03:51:37.290Z,23.58
2023-02-15T03:54:09.098Z,17.98
2023-02-15T03:56:38.893Z,20.98
2023-02-15T03:59:24.434Z,18.30
2023-02-15T04:02:06.937Z,22.48
2023-02-15T04:04:37.578Z,22.13
2023-02-15T04:07:09.088Z,19.60
2023-02-15T04:09:54.683Z,24.90
2023-02-15T04:12:22.950Z,18.02
2023-02-15T04:15:08.484Z,21.27
2023-02-15T04:17:38.325Z,35.00
2023-02-15T04:20:25.384Z,21.95
2023-02-15T04:23:12.383Z,18.42
2023-02-15T04:25:40.812Z,25.83
2023-02-15T04:28:09.121Z,30.52
2023-02-15T04:30:37.430Z,28.45
2023-02-15T04:33:05.471Z,25.65
2023-02-15T04:35:34.501Z,26.52
2023-02-15T04:38:03.953Z,25.08
2023-02-15T04:42:59.980Z,37.10
2023-02-15T04:45:28.240Z,32.42
2023-02-15T04:47:56.364Z,24.92
2023-02-15T04:50:24.530Z,30.23
2023-02-15T04:52:52.582Z,32.35
2023-02-15T04:55:22.135Z,36.90
2023-02-15T05:00:18.703Z,34.40
2023-02-15T05:02:46.771Z,27.27
2023-02-15T05:05:16.186Z,35.75
2023-02-15T05:07:45.714Z,29.08
2023-02-15T05:10:13.838Z,34.40
2023-02-15T05:12:43.295Z,43.30
2023-02-15T05:17:39.573Z,61.80
2023-02-15T05:20:08.785Z,41.28
2023-02-15T05:22:36.919Z,32.00
2023-02-15T05:25:22.736Z,37.67
2023-02-15T05:28:09.537Z,34.05
2023-02-15T05:30:37.794Z,32.60
2023-02-15T05:33:05.944Z,28.90
2023-02-15T05:35:34.554Z,30.20
2023-02-15T05:38:02.696Z,33.72
2023-02-15T05:40:30.747Z,32.88
2023-02-15T05:43:00.378Z,34.95
2023-02-15T05:45:28.618Z,31.35
2023-02-15T05:47:58.971Z,35.03
2023-02-15T05:50:27.218Z,28.10
2023-02-15T05:52:55.311Z,30.15
2023-02-15T05:55:23.368Z,31.92
2023-02-15T05:57:51.492Z,31.77
2023-02-15T06:00:21.402Z,31.10
2023-02-15T06:02:49.630Z,29.52
2023-02-15T06:05:17.884Z,34.83
2023-02-15T06:07:46.486Z,32.45
2023-02-15T06:10:14.600Z,34.67
2023-02-15T06:12:42.684Z,30.55
2023-02-15T06:15:11.183Z,34.42
2023-02-15T06:17:42.801Z,25.67
2023-02-15T06:20:11.823Z,35.92
2023-02-15T06:22:39.887Z,39.50
2023-02-15T06:25:10.821Z,40.50
2023-02-15T06:27:39.082Z,31.25
2023-02-15T06:30:08.439Z,32.72
2023-02-15T06:32:37.838Z,32.03
2023-02-15T06:35:07.915Z,38.75
2023-02-15T06:37:35.987Z,31.52
2023-02-15T06:40:05.706Z,29.27
2023-02-15T06:42:34.153Z,34.92
2023-02-15T06:45:02.212Z,35.45
2023-02-15T06:47:30.274Z,33.08
2023-02-15T06:49:58.593Z,25.52
2023-02-15T06:52:29.304Z,34.17
2023-02-15T06:54:57.468Z,31.33
2023-02-15T06:57:25.838Z,33.55
2023-02-15T06:59:54.149Z,36.60
2023-02-15T07:02:22.205Z,36.72
2023-02-15T07:04:50.324Z,31.70
2023-02-15T07:07:18.546Z,36.67
2023-02-15T07:09:47.970Z,31.02
2023-02-15T07:12:33.572Z,24.83
2023-02-15T07:15:01.665Z,25.27
2023-02-15T07:17:38.098Z,27.85
2023-02-15T07:20:08.758Z,29.60
2023-02-15T07:22:38.197Z,25.58
2023-02-15T07:25:09.598Z,27.02
2023-02-15T07:27:38.022Z,25.92
2023-02-15T07:30:07.766Z,27.15
2023-02-15T07:32:36.260Z,23.48
2023-02-15T07:35:04.731Z,23.43
2023-02-15T07:37:32.753Z,23.80
2023-02-15T07:40:00.835Z,27.65
2023-02-15T07:42:32.344Z,25.10
2023-02-15T07:45:00.425Z,22.50
2023-02-15T07:47:28.962Z,20.45
2023-02-15T07:49:56.976Z,23.83
2023-02-15T07:52:25.080Z,30.23
2023-02-15T07:54:53.153Z,29.77
2023-02-15T07:57:21.214Z,24.50
2023-02-15T07:59:50.680Z,23.23
2023-02-15T08:02:18.742Z,22.98
2023-02-15T08:04:46.770Z,24.48
2023-02-15T08:07:14.848Z,23.92
2023-02-15T08:09:42.911Z,22.75
2023-02-15T08:12:10.964Z,23.23
2023-02-15T08:14:39.028Z,20.80
2023-02-15T08:17:08.501Z,21.42
2023-02-15T08:22:06.271Z,22.70
2023-02-15T08:27:06.213Z,24.05
2023-02-15T08:29:35.759Z,22.02
2023-02-15T08:32:07.039Z,20.67
2023-02-15T08:34:39.594Z,18.00
2023-02-15T08:37:07.862Z,18.52
2023-02-15T08:39:36.071Z,18.58
2023-02-15T08:42:04.365Z,18.73
2023-02-15T08:44:32.446Z,18.23
2023-02-15T08:47:04.636Z,20.75
2023-02-15T08:49:33.173Z,15.63
2023-02-15T08:52:02.624Z,17.60
2023-02-15T08:54:30.718Z,18.67
2023-02-15T08:56:58.817Z,17.65
2023-02-15T08:59:27.932Z,18.88
2023-02-15T09:01:56.586Z,19.70
2023-02-15T09:04:24.752Z,20.02
2023-02-15T09:06:53.431Z,22.00
2023-02-15T09:09:23.236Z,19.63
2023-02-15T09:11:57.710Z,18.77
2023-02-15T09:14:27.910Z,20.08
2023-02-15T09:16:56.434Z,16.48
2023-02-15T09:19:25.818Z,19.13
2023-02-15T09:21:53.991Z,17.10
2023-02-15T09:24:23.646Z,17.85
2023-02-15T09:26:51.743Z,16.70
2023-02-15T09:29:20.404Z,19.02
2023-02-15T09:31:50.949Z,17.57
2023-02-15T09:34:21.136Z,17.83
2023-02-15T09:36:49.941Z,15.07
2023-02-15T09:39:19.519Z,15.43
2023-02-15T09:42:19.061Z,16.15
2023-02-15T09:45:09.247Z,15.02
2023-02-15T09:48:00.686Z,17.02
2023-02-15T09:50:38.394Z,17.90
2023-02-15T09:53:23.567Z,20.02
2023-02-15T09:56:00.127Z,18.05
2023-02-15T09:58:37.608Z,16.65
2023-02-15T10:01:12.434Z,16.48
2023-02-15T10:04:03.018Z,14.90
2023-02-15T10:06:40.095Z,14.68
2023-02-15T10:09:30.427Z,14.70
2023-02-15T10:12:24.577Z,17.63
2023-02-15T10:15:25.113Z,17.17
2023-02-15T10:18:20.301Z,14.30
2023-02-15T10:20:58.809Z,15.75
2023-02-15T10:23:57.084Z,13.20
2023-02-15T10:26:31.785Z,14.45
2023-02-15T10:29:09.305Z,17.50
2023-02-15T10:31:47.838Z,15.00
2023-02-15T10:34:19.914Z,18.20
2023-02-15T10:37:12.386Z,15.10
2023-02-15T10:39:50.896Z,17.33
2023-02-15T10:42:29.881Z,21.35
2023-02-15T10:45:10.154Z,17.38
2023-02-15T10:48:08.122Z,18.17
2023-02-15T10:50:48.407Z,16.80
2023-02-15T10:53:30.872Z,15.95
2023-02-15T10:56:09.828Z,18.80
2023-02-15T10:58:49.048Z,15.82
2023-02-15T11:01:27.221Z,18.58
2023-02-15T11:04:17.451Z,17.17
2023-02-15T11:06:53.040Z,15.48
2023-02-15T11:09:24.351Z,13.85
2023-02-15T11:11:56.520Z,15.18
2023-02-15T11:14:33.160Z,14.20
2023-02-15T11:17:06.622Z,13.48
2023-02-15T11:19:39.723Z,17.80
2023-02-15T11:22:09.266Z,16.98
2023-02-15T11:27:21.252Z,13.05
2023-02-15T11:29:56.981Z,11.82
2023-02-15T11:32:28.314Z,13.27
2023-02-15T11:35:02.845Z,12.15
2023-02-15T11:37:37.979Z,12.52
2023-02-15T11:40:23.232Z,11.50
2023-02-15T11:42:53.551Z,11.43
2023-02-15T11:45:29.491Z,16.15
2023-02-15T11:47:58.589Z,10.63
2023-02-15T11:50:29.733Z,11.93
2023-02-15T11:53:02.225Z,12.05
2023-02-15T11:55:31.193Z,12.38
2023-02-15T11:58:07.244Z,10.90
2023-02-15T12:00:39.002Z,11.05
2023-02-15T12:03:16.317Z,10.93
2023-02-15T12:05:49.552Z,10.75
2023-02-15T12:08:23.425Z,10.80
2023-02-15T12:11:02.844Z,10.25
2023-02-15T12:13:31.164Z,10.40
2023-02-15T12:16:06.601Z,13.25
2023-02-15T12:18:39.818Z,10.35
2023-02-15T12:21:12.814Z,9.60
2023-02-15T12:23:48.777Z,10.25
2023-02-15T12:26:25.367Z,12.63
2023-02-15T12:28:55.437Z,10.52
2023-02-15T12:31:28.742Z,11.15
2023-02-15T12:34:00.120Z,11.85
2023-02-15T12:36:33.820Z,10.32
2023-02-15T12:39:07.209Z,10.63
2023-02-15T12:41:35.560Z,10.27
2023-02-15T12:44:17.091Z,9.30
2023-02-15T12:46:58.788Z,10.27
2023-02-15T12:49:28.092Z,10.57
2023-02-15T12:51:59.428Z,10.05
2023-02-15T12:54:41.814Z,10.38
2023-02-15T12:57:26.421Z,9.43
2023-02-15T12:59:57.260Z,12.15
2023-02-15T13:02:29.702Z,10.45
2023-02-15T13:04:59.505Z,10.73
2023-02-15T13:07:33.378Z,10.20
2023-02-15T13:10:01.678Z,10.05
2023-02-15T13:12:32.925Z,11.45
2023-02-15T13:15:03.607Z,10.90
2023-02-15T13:17:35.476Z,12.88
2023-02-15T13:20:10.681Z,11.80
2023-02-15T13:22:44.185Z,13.88
2023-02-15T13:25:19.621Z,10.63
2023-02-15T13:27:50.644Z,11.18
2023-02-15T13:30:27.964Z,12.68
2023-02-15T13:32:59.966Z,12.27
2023-02-15T13:35:36.300Z,12.00
2023-02-15T13:38:22.723Z,11.60
2023-02-15T13:40:55.635Z,12.57
2023-02-15T13:43:37.439Z,10.52
2023-02-15T13:46:17.498Z,11.40
2023-02-15T13:48:52.830Z,11.93
2023-02-15T13:51:26.040Z,11.90
2023-02-15T13:54:35.400Z,12.13
2023-02-15T13:57:17.944Z,12.30
2023-02-15T13:59:57.254Z,12.45
2023-02-15T14:02:44.860Z,13.40
2023-02-15T14:05:32.927Z,16.48
2023-02-15T14:08:11.071Z,13.25
2023-02-15T14:10:48.788Z,16.20
2023-02-15T14:13:53.635Z,15.85
2023-02-15T14:16:34.469Z,14.27
2023-02-15T14:19:16.026Z,16.17
2023-02-15T14:21:49.457Z,15.23
2023-02-15T14:24:35.683Z,17.60
2023-02-15T14:27:17.145Z,20.17
2023-02-15T14:29:53.477Z,18.48
2023-02-15T14:32:29.961Z,16.98
2023-02-15T14:35:01.095Z,18.88
2023-02-15T14:37:43.379Z,19.50
2023-02-15T14:40:38.870Z,23.08
2023-02-15T14:43:17.149Z,23.55
2023-02-15T14:46:01.005Z,23.77
2023-02-15T14:48:34.307Z,24.33
2023-02-15T14:51:02.758Z,24.17
2023-02-15T14:53:39.604Z,27.45
2023-02-15T14:56:21.332Z,27.42
2023-02-15T14:59:02.877Z,29.77
2023-02-15T15:01:32.389Z,30.42
2023-02-15T15:04:04.945Z,27.95
2023-02-15T15:06:35.649Z,30.30
2023-02-15T15:09:13.539Z,26.98
2023-02-15T15:11:47.622Z,27.02
2023-02-15T15:14:43.795Z,27.23
2023-02-15T15:17:14.300Z,26.35
2023-02-15T15:20:14.441Z,31.25
2023-02-15T15:22:44.176Z,27.83
2023-02-15T15:27:54.913Z,29.30
2023-02-15T15:31:02.926Z,33.15
2023-02-15T15:34:15.271Z,35.92
2023-02-15T15:37:22.936Z,36.50
2023-02-15T15:40:42.274Z,37.30
2023-02-15T15:46:19.503Z,40.55
2023-02-15T15:48:47.719Z,39.53
2023-02-15T15:51:22.117Z,37.85
2023-02-15T15:53:54.165Z,39.55
2023-02-15T15:56:26.663Z,41.35
2023-02-15T15:58:58.800Z,40.78
2023-02-15T16:01:29.529Z,39.75
2023-02-15T16:03:59.885Z,37.85
2023-02-15T16:06:35.777Z,38.17
2023-02-15T16:09:15.364Z,41.72
2023-02-15T16:11:44.040Z,43.72
2023-02-15T16:14:17.954Z,43.47
2023-02-15T16:16:53.096Z,45.83
2023-02-15T16:19:25.697Z,46.53
2023-02-15T16:21:57.400Z,48.75
2023-02-15T16:24:43.797Z,46.30
2023-02-15T16:27:32.419Z,43.63
2023-02-15T16:30:00.581Z,46.55
2023-02-15T16:32:30.041Z,49.50
2023-02-15T16:34:59.756Z,55.97
2023-02-15T16:37:33.439Z,52.65
2023-02-15T16:40:01.670Z,54.63
2023-02-15T16:42:32.234Z,48.60
2023-02-15T16:45:04.411Z,53.92
2023-02-15T16:47:35.481Z,56.45
2023-02-15T16:50:06.139Z,51.95
2023-02-15T16:52:36.713Z,57.55
2023-02-15T16:55:07.347Z,57.72
2023-02-15T16:57:37.454Z,58.85
2023-02-15T17:00:08.427Z,62.67
2023-02-15T17:02:55.018Z,63.97
2023-02-15T17:05:25.361Z,60.53
2023-02-15T17:08:15.119Z,61.75
2023-02-15T17:10:46.459Z,59.25
2023-02-15T17:13:15.611Z,62.67
2023-02-15T17:15:45.516Z,62.47
2023-02-15T17:18:18.753Z,64.47
2023-02-15T17:20:48.253Z,63.42
2023-02-15T17:23:30.794Z,68.50
2023-02-15T17:25:59.197Z,66.25
2023-02-15T17:28:31.507Z,68.68
2023-02-15T17:31:00.676Z,67.53
2023-02-15T17:33:40.346Z,71.07
2023-02-15T17:36:12.349Z,60.67
2023-02-15T17:39:00.753Z,71.45
2023-02-15T17:41:30.413Z,65.82
2023-02-15T17:43:58.924Z,66.32
2023-02-15T17:46:27.740Z,65.63
2023-02-15T17:48:57.040Z,63.35
2023-02-15T17:51:25.386Z,67.75
2023-02-15T17:54:12.325Z,63.90
2023-02-15T17:56:40.629Z,76.15
2023-02-15T17:59:10.218Z,70.03
2023-02-15T18:04:44.227Z,78.25
2023-02-15T18:07:32.043Z,71.28
2023-02-15T18:10:19.053Z,75.30
2023-02-15T18:12:47.457Z,73.57
2023-02-15T18:15:15.586Z,82.07
2023-02-15T18:17:45.749Z,75.32
2023-02-15T18:20:21.272Z,76.97
2023-02-15T18:22:49.336Z,82.40
2023-02-15T18:25:23.537Z,75.10
2023-02-15T18:27:54.570Z,79.85
2023-02-15T18:30:26.236Z,81.47
2023-02-15T18:32:57.603Z,88.22
2023-02-15T18:35:28.098Z,82.55
2023-02-15T18:37:56.398Z,83.20
2023-02-15T18:40:28.264Z,78.07
2023-02-15T18:42:57.419Z,77.15
2023-02-15T18:45:28.589Z,74.75
2023-02-15T18:47:56.759Z,81.50
2023-02-15T18:50:28.197Z,75.65
2023-02-15T18:52:56.252Z,78.68
2023-02-15T18:55:27.798Z,76.78
2023-02-15T18:57:57.986Z,79.00
2023-02-15T19:00:28.354Z,77.30
2023-02-15T19:02:56.494Z,76.78
2023-02-15T19:05:25.386Z,81.60
2023-02-15T19:07:53.488Z,73.70
2023-02-15T19:10:24.181Z,80.22
2023-02-15T19:12:55.943Z,76.03
2023-02-15T19:15:26.045Z,77.50
2023-02-15T19:17:55.395Z,77.97
2023-02-15T19:20:25.326Z,83.45
2023-02-15T19:22:56.379Z,82.75
2023-02-15T19:25:26.924Z,82.75
2023-02-15T19:27:57.210Z,88.53
2023-02-15T19:30:28.609Z,83.78
2023-02-15T19:32:57.069Z,82.82
2023-02-15T19:35:27.985Z,84.32
2023-02-15T19:37:58.241Z,79.43
2023-02-15T19:40:28.953Z,83.75
2023-02-15T19:42:59.053Z,88.80
2023-02-15T19:45:28.677Z,91.63
2023-02-15T19:47:57.189Z,85.95
2023-02-15T19:50:29.356Z,70.73
2023-02-15T19:52:58.139Z,94.40
2023-02-15T19:55:28.777Z,70.95
2023-02-15T19:57:59.644Z,98.70
2023-02-15T20:00:30.112Z,89.25
2023-02-15T20:02:59.203Z,87.22
2023-02-15T20:05:28.241Z,85.13
2023-02-15T20:07:56.961Z,92.72
2023-02-15T20:10:28.164Z,67.72
2023-02-15T20:12:56.363Z,90.35
2023-02-15T20:15:28.994Z,88.13
2023-02-15T20:17:58.789Z,84.97
2023-02-15T20:20:33.408Z,87.45
2023-02-15T20:23:02.005Z,85.15
2023-02-15T20:25:33.923Z,90.67
2023-02-15T20:28:02.821Z,84.40
2023-02-15T20:30:33.585Z,62.78
2023-02-15T20:33:01.729Z,85.45
2023-02-15T20:35:30.292Z,83.78
2023-02-15T20:38:00.431Z,86.50
2023-02-15T20:40:30.910Z,91.00
2023-02-15T20:42:59.321Z,84.40
2023-02-15T20:45:29.189Z,84.47
2023-02-15T20:47:59.188Z,85.35
2023-02-15T20:50:30.196Z,89.55
2023-02-15T20:52:59.647Z,92.82
2023-02-15T20:57:57.756Z,96.32
2023-02-15T21:00:28.195Z,92.75
2023-02-15T21:02:59.302Z,88.53
2023-02-15T21:05:30.111Z,85.55
2023-02-15T21:07:58.392Z,89.72
2023-02-15T21:10:29.371Z,93.25
2023-02-15T21:12:58.047Z,90.35
2023-02-15T21:15:29.503Z,93.22
2023-02-15T21:18:00.924Z,95.35
2023-02-15T21:20:30.943Z,89.93
2023-02-15T21:23:01.417Z,91.05
2023-02-15T21:25:33.361Z,93.03
2023-02-15T21:28:01.792Z,90.72
2023-02-15T21:30:30.137Z,94.07
2023-02-15T21:32:59.622Z,103.93
2023-02-15T21:37:55.949Z,92.40
2023-02-15T21:40:28.633Z,103.90
2023-02-15T21:43:13.982Z,92.85
2023-02-15T21:46:00.046Z,93.28
2023-02-15T21:48:29.628Z,92.43
2023-02-15T21:53:51.231Z,98.72
2023-02-15T21:56:21.352Z,101.82
2023-02-15T21:58:49.550Z,97.50
2023-02-15T22:01:22.401Z,107.10
2023-02-15T22:03:53.568Z,104.75
2023-02-15T22:06:21.664Z,160.80
2023-02-15T22:08:50.048Z,134.43
2023-02-15T22:11:20.290Z,124.65
2023-02-15T22:13:49.121Z,144.25
2023-02-15T22:16:18.543Z,108.97
2023-02-15T22:21:18.059Z,114.80
2023-02-15T22:23:47.115Z,109.93
2023-02-15T22:26:19.423Z,114.18
2023-02-15T22:28:47.700Z,112.05
2023-02-15T22:31:19.818Z,120.75
2023-02-15T22:33:49.703Z,142.23
2023-02-15T22:36:25.172Z,131.57
2023-02-15T22:38:53.619Z,146.57
2023-02-15T22:41:23.538Z,110.43
2023-02-15T22:43:51.609Z,145.55
2023-02-15T22:46:22.622Z,157.73
2023-02-15T22:48:51.561Z,170.55
2023-02-15T22:51:23.337Z,124.68
2023-02-15T22:53:53.760Z,163.32
2023-02-15T22:56:27.073Z,144.48
2023-02-15T22:58:58.667Z,135.45
2023-02-15T23:01:31.690Z,149.05
2023-02-15T23:04:03.060Z,171.27
2023-02-15T23:06:34.226Z,154.82
2023-02-15T23:09:02.341Z,153.43
2023-02-15T23:11:30.493Z,141.35
2023-02-15T23:13:58.586Z,138.10
2023-02-15T23:16:26.788Z,133.63
2023-02-15T23:18:54.821Z,125.10
2023-02-15T23:21:25.666Z,149.35
2023-02-15T23:23:58.532Z,149.68
2023-02-15T23:26:29.405Z,185.60
2023-02-15T23:28:59.334Z,116.05
2023-02-15T23:31:29.920Z,103.97
2023-02-15T23:33:58.504Z,113.82
2023-02-15T23:36:29.500Z,163.57
2023-02-15T23:39:20.684Z,173.27
2023-02-15T23:41:47.847Z,145.65
2023-02-15T23:44:16.150Z,93.63
2023-02-15T23:46:46.393Z,78.85
2023-02-15T23:49:17.047Z,85.07
2023-02-15T23:51:46.585Z,81.07
2023-02-15T23:54:17.470Z,156.02
2023-02-15T23:56:48.129Z,125.03
2023-02-15T23:59:19.001Z,149.07
